createdAt,value
2022-09-15T00:00:49.222Z,97.8
2022-09-15T00:05:47.711Z,95.6
2022-09-15T00:10:45.673Z,94.2
2022-09-15T00:15:43.854Z,96.5
2022-09-15T00:20:41.936Z,96.4
2022-09-15T00:25:39.962Z,98.7
2022-09-15T00:30:37.989Z,99.4
2022-09-15T00:35:35.988Z,99.8
2022-09-15T00:40:34.205Z,100
2022-09-15T00:45:32.544Z,100
2022-09-15T00:50:30.582Z,100
2022-09-15T00:55:28.724Z,100
2022-09-15T01:00:26.768Z,100
2022-09-15T01:05:25.200Z,100
2022-09-15T01:10:23.134Z,100
2022-09-15T01:15:21.296Z,99.6
2022-09-15T01:20:19.414Z,100
2022-09-15T01:25:17.647Z,100
2022-09-15T01:30:15.641Z,100
2022-09-15T01:35:13.529Z,100
2022-09-15T01:40:11.733Z,100
2022-09-15T01:45:09.818Z,100
2022-09-15T01:50:07.676Z,100
2022-09-15T01:55:05.645Z,100
2022-09-15T02:00:03.793Z,100
2022-09-15T02:05:01.934Z,100
2022-09-15T02:09:59.955Z,100
2022-09-15T02:14:58.043Z,100
2022-09-15T02:19:56.216Z,100
2022-09-15T02:24:54.486Z,100
2022-09-15T02:29:52.309Z,100
2022-09-15T02:34:50.684Z,100
2022-09-15T02:39:48.873Z,100
2022-09-15T02:44:46.888Z,100
2022-09-15T02:49:44.918Z,100
2022-09-15T02:54:47.032Z,100
2022-09-15T02:59:44.219Z,100
2022-09-15T03:04:42.336Z,100
2022-09-15T03:09:40.128Z,100
2022-09-15T03:14:38.303Z,100
2022-09-15T03:19:36.555Z,100
2022-09-15T03:24:34.759Z,100
2022-09-15T03:29:32.953Z,100
2022-09-15T03:34:31.215Z,100
2022-09-15T03:39:29.053Z,100
2022-09-15T03:44:27.223Z,100
2022-09-15T03:49:25.401Z,100
2022-09-15T03:54:23.646Z,100
2022-09-15T03:59:21.827Z,100
2022-09-15T04:04:19.682Z,100
2022-09-15T04:09:17.706Z,100
2022-09-15T04:14:15.883Z,100
2022-09-15T04:19:13.981Z,100
2022-09-15T04:24:15.761Z,100
2022-09-15T04:29:13.118Z,100
2022-09-15T04:34:11.546Z,100
2022-09-15T04:39:10.030Z,100
2022-09-15T04:44:08.420Z,100
2022-09-15T04:49:06.675Z,100
2022-09-15T04:54:05.361Z,100
2022-09-15T04:59:04.424Z,97.7
2022-09-15T05:04:03.014Z,94.1
2022-09-15T05:09:03.613Z,89.3
2022-09-15T05:14:01.120Z,83
2022-09-15T05:19:00.498Z,78.8
2022-09-15T05:23:59.703Z,71.8
2022-09-15T05:28:58.403Z,69.1
2022-09-15T05:33:57.005Z,67.9
2022-09-15T05:38:55.410Z,66.7
2022-09-15T05:43:54.620Z,62.3
2022-09-15T05:48:53.640Z,56.5
2022-09-15T05:53:52.887Z,53.5
2022-09-15T05:58:51.367Z,52.3
2022-09-15T06:03:50.186Z,51.8
2022-09-15T06:08:49.975Z,50.8
2022-09-15T06:13:48.059Z,47
2022-09-15T06:18:46.701Z,47.3
2022-09-15T06:23:50.028Z,44.5
2022-09-15T06:28:44.212Z,43.5
2022-09-15T06:33:42.798Z,41.6
2022-09-15T06:38:40.847Z,42.2
2022-09-15T06:43:38.848Z,43.5
2022-09-15T06:48:37.574Z,41.2
2022-09-15T06:53:35.593Z,42.2
2022-09-15T06:58:33.571Z,41.7
2022-09-15T07:03:32.982Z,40.2
2022-09-15T07:08:31.649Z,38
2022-09-15T07:13:30.824Z,35.5
2022-09-15T07:18:29.577Z,35.9
2022-09-15T07:23:29.334Z,33.6
2022-09-15T07:28:27.208Z,33.7
2022-09-15T07:33:25.194Z,31.8
2022-09-15T07:38:24.350Z,31.5
2022-09-15T07:43:23.196Z,30
2022-09-15T07:48:24.440Z,30.5
2022-09-15T07:53:18.792Z,31.3
2022-09-15T07:58:17.364Z,29
2022-09-15T08:03:15.995Z,28.9
2022-09-15T08:08:14.392Z,28.6
2022-09-15T08:13:15.545Z,27.7
2022-09-15T08:18:12.511Z,27.3
2022-09-15T08:23:10.167Z,29
2022-09-15T08:28:08.874Z,27.9
2022-09-15T08:33:07.075Z,26
2022-09-15T08:38:04.989Z,29.6
2022-09-15T08:43:03.404Z,26.5
2022-09-15T08:48:01.139Z,25.7
2022-09-15T08:52:59.194Z,26.9
2022-09-15T08:57:58.172Z,25.3
2022-09-15T09:02:57.104Z,23.5
2022-09-15T09:07:55.390Z,23.4
2022-09-15T09:12:53.426Z,22.1
2022-09-15T09:17:52.736Z,23
2022-09-15T09:22:50.183Z,22.5
2022-09-15T09:27:48.107Z,24.6
2022-09-15T09:32:46.178Z,24.2
2022-09-15T09:37:43.352Z,24.9
2022-09-15T09:42:41.303Z,25.5
2022-09-15T09:47:39.949Z,26.1
2022-09-15T09:52:37.297Z,29
2022-09-15T09:57:39.899Z,25.6
2022-09-15T10:02:33.566Z,26.2
2022-09-15T10:07:33.371Z,23.9
2022-09-15T10:12:31.302Z,23.7
2022-09-15T10:17:29.491Z,22.4
2022-09-15T10:22:27.906Z,23.4
2022-09-15T10:27:25.606Z,22.5
2022-09-15T10:32:25.157Z,23.5
2022-09-15T10:37:19.859Z,24.2
2022-09-15T10:42:17.870Z,23
2022-09-15T10:47:16.626Z,23.8
2022-09-15T10:52:15.808Z,21.3
2022-09-15T10:57:13.973Z,22
2022-09-15T11:02:10.979Z,24.6
2022-09-15T11:07:07.386Z,25.8
2022-09-15T11:12:05.871Z,26.4
2022-09-15T11:17:03.883Z,25.3
2022-09-15T11:22:01.736Z,24.9
2022-09-15T11:26:59.989Z,23.8
2022-09-15T11:31:58.517Z,23.3
2022-09-15T11:36:58.456Z,20.6
2022-09-15T11:41:56.469Z,22.8
2022-09-15T11:46:55.567Z,20
2022-09-15T11:51:52.076Z,21.9
2022-09-15T11:56:49.939Z,21.5
2022-09-15T12:01:47.768Z,23.9
2022-09-15T12:06:45.694Z,21.3
2022-09-15T12:11:44.293Z,18.7
2022-09-15T12:16:43.771Z,18.6
2022-09-15T12:21:42.814Z,17.1
2022-09-15T12:26:40.867Z,17.1
2022-09-15T12:31:38.730Z,18.3
2022-09-15T12:36:36.418Z,17.7
2022-09-15T12:41:34.028Z,18.8
2022-09-15T12:46:31.415Z,18.8
2022-09-15T12:51:28.802Z,20.3
2022-09-15T12:56:25.686Z,19.5
2022-09-15T13:01:22.874Z,22.1
2022-09-15T13:06:18.792Z,26.8
2022-09-15T13:11:15.110Z,28
2022-09-15T13:16:11.870Z,29.9
2022-09-15T13:21:09.400Z,30.9
2022-09-15T13:26:07.187Z,30
2022-09-15T13:31:06.502Z,31.7
2022-09-15T13:36:04.722Z,30.5
2022-09-15T13:41:02.838Z,32.5
2022-09-15T13:46:00.663Z,32.7
2022-09-15T13:50:58.756Z,30.5
2022-09-15T13:55:56.684Z,32.2
2022-09-15T14:00:54.742Z,34.2
2022-09-15T14:05:52.145Z,36.3
2022-09-15T14:10:53.596Z,33.6
2022-09-15T14:15:51.087Z,34.3
2022-09-15T14:20:50.540Z,34.9
2022-09-15T14:25:48.916Z,34.5
2022-09-15T14:30:47.488Z,35
2022-09-15T14:35:46.143Z,36.4
2022-09-15T14:40:44.679Z,33
2022-09-15T14:50:39.589Z,34.9
2022-09-15T14:55:37.124Z,29.6
2022-09-15T15:00:34.978Z,31.9
2022-09-15T15:05:32.651Z,30.8
2022-09-15T15:10:35.023Z,31.5
2022-09-15T15:15:28.035Z,32
2022-09-15T15:20:25.921Z,34.4
2022-09-15T15:25:23.642Z,36.7
2022-09-15T15:30:21.966Z,38.9
2022-09-15T15:35:19.954Z,40
2022-09-15T15:40:18.221Z,41.2
2022-09-15T15:45:15.995Z,43.7
2022-09-15T15:50:14.138Z,43
2022-09-15T15:55:11.057Z,44.2
2022-09-15T16:00:08.726Z,47
2022-09-15T16:05:06.174Z,47.7
2022-09-15T16:10:04.153Z,49.7
2022-09-15T16:15:02.097Z,47.9
2022-09-15T16:19:59.766Z,50.4
2022-09-15T16:24:57.782Z,48.2
2022-09-15T16:29:55.981Z,44.8
2022-09-15T16:34:54.579Z,45.8
2022-09-15T16:39:52.881Z,44.4
2022-09-15T16:44:50.949Z,43.9
2022-09-15T16:49:48.923Z,48
2022-09-15T16:54:46.542Z,49.5
2022-09-15T16:59:44.185Z,49.6
2022-09-15T17:04:41.843Z,55.8
2022-09-15T17:09:39.360Z,56.1
2022-09-15T17:14:37.092Z,55.4
2022-09-15T17:19:35.020Z,54.7
2022-09-15T17:24:32.999Z,60
2022-09-15T17:29:30.424Z,63.1
2022-09-15T17:34:28.313Z,63.7
2022-09-15T17:39:26.177Z,63.8
2022-09-15T17:44:24.135Z,65.6
2022-09-15T17:49:22.113Z,65.4
2022-09-15T17:54:20.052Z,67.6
2022-09-15T17:59:17.799Z,71.3
2022-09-15T18:04:15.443Z,69.2
2022-09-15T18:09:13.380Z,69.6
2022-09-15T18:14:11.683Z,67.3
2022-09-15T18:19:10.584Z,71.2
2022-09-15T18:24:08.739Z,70.2
2022-09-15T18:29:06.780Z,70.1
2022-09-15T18:34:05.091Z,70.5
2022-09-15T18:39:03.105Z,68.9
2022-09-15T18:44:01.066Z,69
2022-09-15T18:48:59.303Z,69.6
2022-09-15T18:53:57.460Z,66.2
2022-09-15T18:58:56.120Z,62.5
2022-09-15T19:03:55.333Z,57.6
2022-09-15T19:08:53.603Z,60.3
2022-09-15T19:13:51.556Z,57.8
2022-09-15T19:18:49.922Z,57.3
2022-09-15T19:23:48.145Z,55.6
2022-09-15T19:28:48.388Z,55.7
2022-09-15T19:33:45.957Z,56
2022-09-15T19:38:44.021Z,53.9
2022-09-15T19:43:42.612Z,53.2
2022-09-15T19:48:42.133Z,52.8
2022-09-15T19:53:38.748Z,52.2
2022-09-15T19:58:37.070Z,50.9
2022-09-15T20:03:34.969Z,51.4
2022-09-15T20:08:33.015Z,52.6
2022-09-15T20:13:31.287Z,51.9
2022-09-15T20:18:29.308Z,52.4
2022-09-15T20:23:27.212Z,53.8
2022-09-15T20:28:24.914Z,56.2
2022-09-15T20:33:22.831Z,53.5
2022-09-15T20:38:20.921Z,53.7
2022-09-15T20:43:19.208Z,53.6
2022-09-15T20:48:17.501Z,51.4
2022-09-15T20:53:15.253Z,53.2
2022-09-15T20:58:13.703Z,53.7
2022-09-15T21:03:11.559Z,52.9
2022-09-15T21:08:09.947Z,52.9
2022-09-15T21:13:08.377Z,52.5
2022-09-15T21:18:06.321Z,53
2022-09-15T21:23:04.382Z,52.8
2022-09-15T21:28:02.590Z,53.3
2022-09-15T21:33:00.600Z,54.1
2022-09-15T21:38:00.702Z,54.4
2022-09-15T21:42:56.824Z,54.8
2022-09-15T21:47:54.951Z,54.8
2022-09-15T21:52:52.809Z,55
2022-09-15T21:57:50.787Z,56.5
2022-09-15T22:02:48.406Z,57.5
2022-09-15T22:07:46.406Z,59.3
2022-09-15T22:12:44.560Z,59.9
2022-09-15T22:17:42.494Z,61.2
2022-09-15T22:22:40.401Z,61.7
2022-09-15T22:27:38.610Z,60.1
2022-09-15T22:32:37.170Z,58.4
2022-09-15T22:37:35.387Z,58.9
2022-09-15T22:42:33.356Z,58.2
2022-09-15T22:47:31.510Z,58.4
2022-09-15T22:52:29.601Z,60.7
2022-09-15T22:57:27.553Z,61.3
2022-09-15T23:02:25.499Z,63.7
2022-09-15T23:07:23.283Z,63.5
2022-09-15T23:12:21.373Z,59.9
2022-09-15T23:17:19.691Z,60.7
2022-09-15T23:22:17.514Z,60.1
2022-09-15T23:27:15.600Z,62.2
2022-09-15T23:32:13.371Z,63.2
2022-09-15T23:37:11.520Z,58.6
2022-09-15T23:42:10.072Z,56.4
2022-09-15T23:47:08.402Z,54.2
2022-09-15T23:52:06.862Z,54.5
2022-09-15T23:57:05.122Z,53.5
